»·PEaware :: DAL243 KDCA-KLGA

DAL243 :: KDCA-KLGA

FLIGHT INFORMATION

Flight Status: Arrived
Operator:
Delta Air Lines
More flights by this operator :: More flights under this callsign
Pilot: Cullen C. (7783)
Aircraft: BOEING 737-800
(B738)
More flights by this aircraft type
Origin: KDCA Ronald Reagan Washington Natl
United States
Destination: KLGA La Guardia
United States
More flights between these airports :: More routes between these airports
Route: DOCTR3 AGARD KORRY4
File this flight plan on PilotEdge
Remarks:
Altitude:
(Current/Filed)
25,000ft
Speed:
(Current/Filed)
449kts
Departed: 10-Jan-18 10:07 PM
Arrived: 10-Jan-18 10:48 PM
Distance/Time
Traveled:
186nm/0:41
Distance/Time
To Go:
Arrived

Flight Plot

Page will automatically refresh every two minutes.

Flight plan parsing failed; only flown route is shown


Map Options




Map Legend


Flown Route
Filed Route
Departure Airport
Arrival Airport
Navaid (VOR, NDB)
Fix

Horizontal Profiles

Position Reports

Time Latitude Longitude Heading Altitude Ground
Speed
10-Jan-18 21:47 38.854229 -77.040568 267 21ft 0kts
10-Jan-18 21:48 38.854229 -77.040568 267 21ft 0kts
10-Jan-18 21:49 38.854229 -77.040568 267 21ft 0kts
10-Jan-18 21:50 38.854229 -77.040568 267 21ft 0kts
10-Jan-18 21:51 38.854229 -77.040568 267 21ft 0kts
10-Jan-18 21:52 38.854229 -77.040568 267 21ft 0kts
10-Jan-18 21:53 38.854229 -77.040568 267 21ft 0kts
10-Jan-18 21:54 38.854229 -77.040568 267 21ft 0kts
10-Jan-18 21:55 38.854229 -77.040568 267 21ft 0kts
10-Jan-18 21:56 38.854229 -77.040568 267 21ft 0kts
10-Jan-18 21:57 38.854229 -77.040568 267 21ft 0kts
10-Jan-18 21:58 38.854229 -77.040568 267 21ft 0kts
10-Jan-18 21:59 38.854229 -77.040568 267 21ft 0kts
10-Jan-18 22:00 38.854229 -77.040568 267 21ft 0kts
10-Jan-18 22:01 38.854229 -77.040568 267 21ft 0kts
10-Jan-18 22:02 38.854229 -77.040568 267 21ft 0kts
10-Jan-18 22:03 38.854229 -77.040568 267 21ft 0kts
10-Jan-18 22:04 38.854242 -77.040348 250 22ft 2kts
10-Jan-18 22:05 38.854672 -77.040096 184 21ft 0kts
10-Jan-18 22:06 38.854671 -77.040096 184 21ft 0kts
10-Jan-18 22:07 38.854579 -77.040096 175 21ft 2kts
10-Jan-18 22:08 38.852618 -77.039602 129 21ft 9kts
10-Jan-18 22:09 38.849643 -77.038986 174 21ft 12kts
10-Jan-18 22:10 38.846460 -77.038660 175 21ft 13kts
10-Jan-18 22:11 38.842921 -77.038056 127 21ft 7kts
10-Jan-18 22:12 38.843013 -77.036906 356 21ft 0kts
10-Jan-18 22:13 38.866856 -77.039557 350 752ft 172kts
10-Jan-18 22:14 38.904155 -77.075261 299 2974ft 195kts
10-Jan-18 22:15 38.940153 -77.128075 327 4759ft 233kts
10-Jan-18 22:16 39.005146 -77.135134 32 7590ft 271kts
10-Jan-18 22:17 39.038554 -77.049661 94 10368ft 307kts
10-Jan-18 22:18 39.029537 -76.931559 96 12758ft 346kts
10-Jan-18 22:19 39.020086 -76.806441 95 15563ft 363kts
10-Jan-18 22:20 39.010326 -76.674573 95 18211ft 380kts
10-Jan-18 22:21 39.009461 -76.535926 88 20727ft 397kts
10-Jan-18 22:22 39.011245 -76.392331 80 23081ft 411kts
10-Jan-18 22:23 39.026192 -76.246364 80 25221ft 426kts
10-Jan-18 22:24 39.041694 -76.089524 80 25474ft 467kts
10-Jan-18 22:25 39.050436 -75.922075 85 25452ft 472kts
10-Jan-18 22:26 39.065321 -75.756574 64 25466ft 464kts
10-Jan-18 22:27 39.129457 -75.651112 40 25454ft 452kts
10-Jan-18 22:28 39.214981 -75.538032 40 25452ft 451kts
10-Jan-18 22:29 39.313670 -75.442575 28 25453ft 444kts
10-Jan-18 22:30 39.414514 -75.353338 28 25431ft 424kts
10-Jan-18 22:31 39.499035 -75.278206 29 24290ft 397kts
10-Jan-18 22:32 39.587399 -75.195879 30 22331ft 387kts
10-Jan-18 22:33 39.673152 -75.115385 30 20433ft 377kts
10-Jan-18 22:34 39.758577 -75.041473 28 18589ft 365kts
10-Jan-18 22:35 39.841966 -74.969705 29 16791ft 356kts
10-Jan-18 22:36 39.921752 -74.897577 34 14622ft 346kts
10-Jan-18 22:37 39.986830 -74.805546 45 12894ft 341kts
10-Jan-18 22:38 40.049127 -74.715846 44 11210ft 330kts
10-Jan-18 22:39 40.108713 -74.630122 44 9755ft 309kts
10-Jan-18 22:40 40.162212 -74.552924 43 9061ft 270kts
10-Jan-18 22:41 40.213874 -74.480004 44 8393ft 285kts
10-Jan-18 22:42 40.270022 -74.409578 44 7690ft 276kts
10-Jan-18 22:43 40.322454 -74.343374 45 7042ft 273kts
10-Jan-18 22:44 40.374829 -74.277091 46 6392ft 264kts
10-Jan-18 22:45 40.425496 -74.212515 42 5757ft 244kts
10-Jan-18 22:46 40.474873 -74.149694 42 5124ft 248kts
10-Jan-18 22:47 40.524385 -74.088183 33 4499ft 242kts
10-Jan-18 22:48 40.581218 -74.040738 31 3793ft 242kts
10-Jan-18 22:49 40.637445 -73.993126 32 3033ft 242kts
10-Jan-18 22:50 40.688553 -73.949471 31 2445ft 197kts
10-Jan-18 22:51 40.724311 -73.903119 68 2178ft 172kts
10-Jan-18 22:52 40.740819 -73.844832 57 1519ft 160kts
10-Jan-18 22:53 40.772722 -73.858517 300 34ft 145kts
10-Jan-18 22:54 40.778190 -73.874010 189 15ft 11kts
10-Jan-18 22:55 40.777222 -73.871638 122 15ft 7kts
10-Jan-18 22:56 40.775885 -73.868881 122 15ft 10kts
10-Jan-18 22:57 40.773937 -73.865059 123 15ft 14kts
10-Jan-18 22:58 40.771598 -73.863212 198 15ft 0kts
10-Jan-18 22:59 40.771598 -73.863212 198 15ft 0kts
10-Jan-18 23:00 40.771598 -73.863212 198 15ft 0kts
10-Jan-18 23:01 40.771598 -73.863212 198 15ft 0kts
10-Jan-18 23:02 40.771598 -73.863212 198 15ft 0kts
10-Jan-18 23:03 40.771598 -73.863212 198 15ft 0kts

Navigation Log

Ident Type
Flight plan parsing failed, navigation log unavailable